Terminal Aerodrome Forecast
Issued by NWS

Home | Current Version | Previous Version | Text Only | Print | Product List | Glossary On
Versions: 1 2 3 4 5 6 7 8 9 10 11 12 13 14 15
544
FTUS43 KFGF 240520
TAFBJI
TAF
KBJI 240520Z 2406/2506 21006KT P6SM SCT020 BKN150
      TEMPO 2406/2410 5SM BR SCT030 BKN050
     FM241000 27004KT P6SM BKN060
     FM241200 27004KT P6SM FEW200
     FM241700 26013G20KT P6SM FEW060
     FM250100 27008KT P6SM FEW250=

USA.gov is the U.S. government's official web portal to all federal, state and local government web resources and services.